Time;durP1;ratioP1;P1;durP2;ratioP2;P2;SDS_P1;SDS_P2;PMS_P1;PMS_P2;Temp;Humidity;BMP_temperature;BMP_pressure;BME280_temperature;BME280_humidity;BME280_pressure;Samples;Min_cycle;Max_cycle;Signal;HPM_P1;HPM_P2
2022/12/20 00:01:12;;;;;;;6.18;4.88;;;8.40;99.90;;;;;;5040361;28;20128;-76
2022/12/20 00:03:38;;;;;;;;;;;8.40;99.90;;;;;;5042953;28;20033;-75
2022/12/20 00:06:04;;;;;;;8.60;4.70;;;8.30;99.90;;;;;;5041977;28;20375;-75
2022/12/20 00:08:30;;;;;;;9.82;4.70;;;8.40;99.90;;;;;;5049646;28;20048;-75
2022/12/20 00:10:59;;;;;;;6.65;5.15;;;8.40;99.90;;;;;;5037541;28;20037;-75
2022/12/20 00:13:24;;;;;;;8.77;5.05;;;8.40;99.90;;;;;;5038385;28;20051;-75
2022/12/20 00:15:50;;;;;;;5.45;4.63;;;8.40;99.90;;;;;;5058369;28;20037;-75
2022/12/20 00:18:15;;;;;;;8.43;5.18;;;8.40;99.90;;;;;;5038958;28;20143;-75
2022/12/20 00:20:41;;;;;;;6.63;4.45;;;8.40;99.90;;;;;;5045689;28;20055;-75
2022/12/20 00:23:06;;;;;;;5.90;4.82;;;8.40;99.90;;;;;;5055729;28;20608;-75
2022/12/20 00:25:32;;;;;;;7.72;4.38;;;8.40;99.90;;;;;;5054063;28;20045;-75
2022/12/20 00:27:58;;;;;;;6.63;4.55;;;8.40;99.90;;;;;;5043051;28;20033;-75
2022/12/20 00:30:23;;;;;;;6.45;4.68;;;8.40;99.90;;;;;;5042872;28;20560;-75
2022/12/20 00:32:49;;;;;;;7.68;4.50;;;8.40;99.90;;;;;;5041793;28;20467;-75
2022/12/20 00:35:15;;;;;;;7.07;4.57;;;8.50;99.90;;;;;;5040141;28;20123;-75
2022/12/20 00:37:40;;;;;;;7.63;4.50;;;8.50;99.90;;;;;;5043122;28;20055;-75
2022/12/20 00:40:06;;;;;;;5.32;4.40;;;8.50;99.90;;;;;;5041327;28;21403;-75
2022/12/20 00:42:32;;;;;;;5.22;4.50;;;8.50;99.90;;;;;;5041306;28;20041;-75
2022/12/20 00:44:58;;;;;;;8.48;4.50;;;8.60;99.90;;;;;;5039194;28;20037;-75
2022/12/20 00:47:23;;;;;;;6.47;4.70;;;8.50;99.90;;;;;;5029232;28;20090;-75
2022/12/20 00:49:49;;;;;;;5.65;4.28;;;8.50;99.90;;;;;;5035854;28;20045;-75
2022/12/20 00:52:15;;;;;;;6.63;4.63;;;8.60;99.90;;;;;;5024243;28;20041;-75
2022/12/20 00:54:40;;;;;;;7.55;4.32;;;8.60;99.90;;;;;;5043136;28;20467;-75
2022/12/20 00:57:06;;;;;;;5.95;4.38;;;8.60;99.90;;;;;;5043865;28;20059;-75
2022/12/20 00:59:32;;;;;;;5.88;4.50;;;8.60;99.90;;;;;;5025676;28;20115;-75
2022/12/20 01:01:58;;;;;;;4.60;4.20;;;8.60;99.90;;;;;;5044273;28;20107;-75
2022/12/20 01:04:24;;;;;;;6.45;4.57;;;;;;;;;;5045412;28;20041;-75
2022/12/20 01:06:50;;;;;;;4.90;4.28;;;8.80;99.90;;;;;;5048779;28;20037;-75
2022/12/20 01:09:15;;;;;;;7.53;4.35;;;8.80;99.90;;;;;;5046634;28;20043;-75
2022/12/20 01:11:41;;;;;;;4.90;3.97;;;8.80;99.90;;;;;;5044183;28;20041;-75
2022/12/20 01:14:12;;;;;;;6.93;4.50;;;8.90;99.90;;;;;;5045781;28;20043;-75
2022/12/20 01:16:41;;;;;;;5.75;4.40;;;8.90;99.90;;;;;;5039080;28;20041;-76
2022/12/20 01:19:07;;;;;;;6.65;4.40;;;8.90;99.90;;;;;;5025648;28;20049;-76
2022/12/20 01:21:33;;;;;;;5.93;4.63;;;8.80;99.90;;;;;;5026896;28;20045;-75
2022/12/20 01:24:00;;;;;;;5.38;4.55;;;8.80;99.90;;;;;;5024318;28;20048;-75
2022/12/20 01:26:27;;;;;;;6.07;4.80;;;8.70;99.90;;;;;;5023407;28;20556;-75
2022/12/20 01:28:58;;;;;;;4.72;4.30;;;8.70;99.90;;;;;;5024479;28;20085;-75
2022/12/20 01:31:25;;;;;;;6.22;4.22;;;8.80;99.90;;;;;;5033698;28;20065;-75
2022/12/20 01:33:51;;;;;;;5.67;4.20;;;9.00;99.90;;;;;;5031908;28;20048;-75
2022/12/20 01:36:24;;;;;;;6.60;4.07;;;8.80;99.90;;;;;;5009069;28;20037;-76
2022/12/20 01:38:50;;;;;;;6.25;4.05;;;9.00;99.90;;;;;;5030396;28;20057;-75
2022/12/20 01:41:20;;;;;;;6.38;3.80;;;8.70;99.90;;;;;;5037311;28;20044;-75
2022/12/20 01:43:52;;;;;;;8.30;4.43;;;8.70;99.90;;;;;;5031858;28;20037;-75
2022/12/20 01:46:20;;;;;;;5.68;4.20;;;8.90;99.90;;;;;;5029820;28;20137;-75
2022/12/20 01:48:51;;;;;;;5.50;4.07;;;9.00;99.90;;;;;;5026978;28;20037;-75
2022/12/20 01:51:17;;;;;;;9.18;4.50;;;9.00;99.90;;;;;;5004426;28;20053;-75
2022/12/20 01:53:44;;;;;;;5.32;4.10;;;8.90;99.90;;;;;;5021926;28;20041;-76
2022/12/20 01:56:10;;;;;;;5.35;3.97;;;8.70;99.90;;;;;;5021936;28;20506;-75
2022/12/20 01:58:38;;;;;;;7.72;3.95;;;8.90;99.90;;;;;;5016401;28;20119;-76
2022/12/20 02:01:04;;;;;;;5.18;3.83;;;8.80;99.90;;;;;;5018504;28;20037;-75
2022/12/20 02:03:31;;;;;;;5.70;4.30;;;8.80;99.90;;;;;;5020587;28;20399;-75
2022/12/20 02:06:06;;;;;;;6.25;4.00;;;8.80;99.90;;;;;;5022766;28;20046;-75
2022/12/20 02:08:32;;;;;;;6.85;4.30;;;8.90;99.90;;;;;;5023830;28;20045;-75
2022/12/20 02:11:10;;;;;;;5.57;3.90;;;;;;;;;;5021997;28;20532;-75
2022/12/20 02:13:53;;;;;;;7.75;4.10;;;8.80;99.90;;;;;;5026954;28;20127;-76
2022/12/20 02:16:24;;;;;;;5.38;3.70;;;9.00;99.90;;;;;;4998452;28;20108;-75
2022/12/20 02:19:42;;;;;;;4.55;3.63;;;8.90;99.90;;;;;;5024714;28;20179;-75
2022/12/20 02:22:20;;;;;;;8.13;4.22;;;8.70;99.90;;;;;;4998601;28;20454;-75
2022/12/20 02:25:07;;;;;;;4.70;3.65;;;9.10;99.90;;;;;;5018493;28;20048;-75
2022/12/20 02:27:53;;;;;;;6.15;3.75;;;;;;;;;;5014454;28;20125;-75
2022/12/20 02:30:21;;;;;;;3.80;3.50;;;;;;;;;;5017447;28;20495;-75
2022/12/20 02:32:52;;;;;;;5.47;3.72;;;;;;;;;;5016416;28;20041;-77
2022/12/20 02:35:23;;;;;;;4.55;3.47;;;;;;;;;;5021388;28;20266;-75
2022/12/20 02:37:50;;;;;;;4.25;3.33;;;;;;;;;;5031282;28;20053;-76
2022/12/20 02:40:19;;;;;;;4.70;3.67;;;;;;;;;;5020449;28;20164;-77
2022/12/20 02:42:46;;;;;;;5.25;3.70;;;9.10;99.90;;;;;;5020065;28;20050;-76
2022/12/20 02:45:16;;;;;;;4.22;3.35;;;9.10;99.90;;;;;;5016582;28;20443;-76
2022/12/20 02:47:59;;;;;;;4.53;3.55;;;9.30;99.90;;;;;;5001731;28;20143;-76
2022/12/20 02:50:36;;;;;;;6.38;4.20;;;9.10;99.90;;;;;;4998854;28;20137;-76
2022/12/20 02:53:04;;;;;;;6.45;3.70;;;9.10;99.90;;;;;;5019233;28;20042;-76
2022/12/20 02:55:54;;;;;;;4.75;3.42;;;9.20;99.90;;;;;;5020516;28;20046;-76
2022/12/20 02:58:30;;;;;;;4.50;3.47;;;9.10;99.90;;;;;;5040013;28;20056;-76
2022/12/20 03:01:03;;;;;;;3.60;3.30;;;9.10;99.90;;;;;;5031324;28;20033;-77
2022/12/20 03:03:31;;;;;;;3.97;3.58;;;9.10;99.90;;;;;;5018426;28;20128;-76
2022/12/20 03:05:56;;;;;;;6.53;3.58;;;9.10;99.90;;;;;;5035493;28;20045;-76
2022/12/20 03:08:23;;;;;;;5.78;3.80;;;9.10;99.90;;;;;;5039870;28;20110;-76
2022/12/20 03:10:51;;;;;;;4.82;3.63;;;9.20;99.90;;;;;;5039549;28;20048;-76
2022/12/20 03:13:17;;;;;;;6.70;3.63;;;9.10;99.90;;;;;;5037291;28;20674;-76
2022/12/20 03:15:42;;;;;;;4.28;3.80;;;9.10;99.90;;;;;;5042497;28;20069;-76
2022/12/20 03:18:08;;;;;;;5.25;3.97;;;9.00;99.90;;;;;;5040873;28;20049;-76
2022/12/20 03:20:34;;;;;;;5.75;4.22;;;9.10;99.90;;;;;;5025131;28;20399;-75
2022/12/20 03:23:00;;;;;;;4.55;4.10;;;9.10;99.90;;;;;;5044930;28;20078;-77
2022/12/20 03:25:26;;;;;;;4.50;4.05;;;9.10;99.90;;;;;;5043451;28;20447;-75
2022/12/20 03:27:51;;;;;;;7.13;4.07;;;9.10;99.90;;;;;;5043346;28;22054;-76
2022/12/20 03:30:17;;;;;;;6.85;4.35;;;9.10;99.90;;;;;;5042162;28;20037;-76
2022/12/20 03:32:43;;;;;;;5.72;4.38;;;9.10;99.90;;;;;;5047235;28;20037;-76
2022/12/20 03:35:09;;;;;;;4.57;4.05;;;9.10;99.90;;;;;;5036321;28;20132;-75
2022/12/20 03:37:34;;;;;;;5.22;4.35;;;9.20;99.90;;;;;;5035041;28;20394;-75
2022/12/20 03:40:00;;;;;;;6.95;4.45;;;9.10;99.90;;;;;;5052733;28;20433;-75
2022/12/20 03:42:26;;;;;;;6.25;4.63;;;9.20;99.90;;;;;;5050350;28;20158;-75
2022/12/20 03:44:51;;;;;;;5.15;4.22;;;9.10;99.90;;;;;;5045646;28;20047;-75
2022/12/20 03:47:17;;;;;;;5.18;4.07;;;9.10;99.90;;;;;;5044588;28;20045;-75
2022/12/20 03:49:42;;;;;;;4.85;4.35;;;9.10;99.90;;;;;;5046479;28;20048;-75
2022/12/20 03:52:11;;;;;;;5.03;4.18;;;9.10;99.90;;;;;;5054652;28;20033;-75
2022/12/20 03:54:37;;;;;;;7.07;4.78;;;9.10;99.90;;;;;;5053235;28;20037;-75
2022/12/20 03:57:02;;;;;;;5.72;4.35;;;9.20;99.90;;;;;;5049557;28;20048;-75
2022/12/20 03:59:28;;;;;;;5.70;4.30;;;9.10;99.90;;;;;;5047524;28;20132;-75
2022/12/20 04:01:54;;;;;;;7.75;4.82;;;9.10;99.90;;;;;;5048298;28;20048;-75
2022/12/20 04:04:19;;;;;;;6.38;4.70;;;9.10;99.90;;;;;;5045208;28;20036;-75
2022/12/20 04:06:45;;;;;;;6.53;4.63;;;9.10;99.90;;;;;;5046114;28;20041;-76
2022/12/20 04:09:11;;;;;;;6.65;4.90;;;9.10;99.90;;;;;;5047401;28;20143;-76
2022/12/20 04:11:38;;;;;;;6.55;4.65;;;9.10;99.90;;;;;;5056543;28;20127;-75
2022/12/20 04:14:04;;;;;;;7.80;5.10;;;9.00;99.90;;;;;;5058618;28;20040;-75
2022/12/20 04:16:30;;;;;;;5.18;4.68;;;9.00;99.90;;;;;;5038492;28;20848;-75
2022/12/20 04:18:56;;;;;;;5.90;4.60;;;9.00;99.90;;;;;;5027197;28;20063;-75
2022/12/20 04:21:27;;;;;;;5.75;4.60;;;9.00;99.90;;;;;;5042402;28;20075;-75
2022/12/20 04:23:53;;;;;;;7.20;5.10;;;9.00;99.90;;;;;;5028305;28;20481;-75
2022/12/20 04:26:19;;;;;;;7.57;5.05;;;9.00;99.90;;;;;;5047138;28;20171;-76
2022/12/20 04:28:45;;;;;;;7.20;4.75;;;9.10;99.90;;;;;;5045178;28;20441;-75
2022/12/20 04:31:11;;;;;;;6.70;4.85;;;9.10;99.90;;;;;;5041892;28;20041;-76
2022/12/20 04:33:37;;;;;;;9.82;4.85;;;9.10;99.90;;;;;;5046237;28;20051;-76
2022/12/20 04:36:03;;;;;;;5.55;5.00;;;9.10;99.90;;;;;;5044069;28;20037;-76
2022/12/20 04:38:29;;;;;;;6.20;4.80;;;9.10;99.90;;;;;;5045657;28;20037;-75
2022/12/20 04:40:55;;;;;;;5.93;4.55;;;9.10;99.90;;;;;;5040761;28;20043;-76
2022/12/20 04:43:22;;;;;;;6.03;4.88;;;9.10;99.90;;;;;;5047479;28;20072;-76
2022/12/20 04:45:49;;;;;;;8.18;5.13;;;9.10;99.90;;;;;;5045824;28;20037;-76
2022/12/20 04:48:15;;;;;;;5.50;4.50;;;9.10;99.90;;;;;;5043425;28;20098;-75
2022/12/20 04:50:41;;;;;;;6.97;4.85;;;9.20;99.90;;;;;;5027431;28;20041;-75
2022/12/20 04:55:54;;;;;;;7.63;4.57;;;9.20;99.90;;;;;;5041395;28;20049;-75
2022/12/20 04:58:19;;;;;;;5.25;4.20;;;9.30;99.90;;;;;;5040347;28;20299;-75
2022/12/20 05:00:45;;;;;;;6.28;4.18;;;9.30;99.90;;;;;;5045809;28;20492;-76
2022/12/20 05:03:11;;;;;;;5.97;4.13;;;9.40;99.90;;;;;;5047538;28;20383;-76
2022/12/20 05:05:36;;;;;;;6.75;4.10;;;9.40;99.90;;;;;;5044837;28;20040;-76
2022/12/20 05:08:02;;;;;;;6.72;4.07;;;9.40;99.90;;;;;;5041865;28;20426;-76
2022/12/20 05:10:27;;;;;;;6.95;4.38;;;9.40;99.90;;;;;;5022811;28;20094;-75
2022/12/20 05:12:53;;;;;;;4.65;4.07;;;9.50;99.90;;;;;;5021073;28;20143;-75
2022/12/20 05:15:19;;;;;;;5.30;3.83;;;9.60;99.90;;;;;;5040969;28;20467;-75
2022/12/20 05:17:44;;;;;;;5.43;3.92;;;9.60;99.90;;;;;;5029663;28;20056;-76
2022/12/20 05:20:11;;;;;;;6.30;4.28;;;9.70;99.90;;;;;;5020725;28;20057;-75
2022/12/20 05:28:04;;;;;;;4.68;3.70;;;9.80;99.90;;;;;;5021026;28;20049;-76
2022/12/20 05:30:30;;;;;;;5.50;3.90;;;9.80;99.90;;;;;;5026877;28;20098;-75
2022/12/20 05:32:56;;;;;;;4.53;3.60;;;9.80;99.90;;;;;;5033518;28;20087;-75
2022/12/20 05:35:22;;;;;;;6.78;3.55;;;9.80;99.90;;;;;;5028609;28;20033;-75
2022/12/20 05:37:48;;;;;;;6.18;3.80;;;9.80;99.90;;;;;;5026697;28;20117;-75
2022/12/20 05:40:14;;;;;;;5.30;3.80;;;9.80;99.90;;;;;;5024080;28;20476;-75
2022/12/20 05:42:40;;;;;;;5.75;3.63;;;9.80;99.90;;;;;;5026272;28;20067;-75
2022/12/20 05:45:06;;;;;;;5.53;4.05;;;9.90;99.90;;;;;;5010528;28;20434;-75
2022/12/20 05:47:32;;;;;;;5.43;3.92;;;9.90;99.90;;;;;;5003786;28;20088;-75
2022/12/20 05:50:02;;;;;;;4.13;3.72;;;10.00;99.90;;;;;;5021082;28;20037;-75
2022/12/20 05:52:29;;;;;;;8.40;3.83;;;9.90;99.90;;;;;;5019746;28;20046;-75
2022/12/20 05:54:55;;;;;;;4.43;3.60;;;9.90;99.90;;;;;;5005538;28;20132;-75
2022/12/20 05:57:21;;;;;;;4.80;3.92;;;10.00;99.90;;;;;;5007074;28;20543;-75
2022/12/20 05:59:47;;;;;;;5.20;3.80;;;9.90;99.90;;;;;;5020908;28;20045;-76
2022/12/20 06:02:13;;;;;;;4.30;3.90;;;9.90;99.90;;;;;;5022508;28;20688;-76
2022/12/20 06:04:38;;;;;;;8.07;5.38;;;9.90;99.90;;;;;;5023908;28;20034;-75
2022/12/20 06:07:04;;;;;;;4.47;3.67;;;9.90;99.90;;;;;;5025880;28;20360;-75
2022/12/20 06:09:31;;;;;;;5.45;3.58;;;9.90;99.90;;;;;;5010823;28;20056;-75
2022/12/20 06:11:57;;;;;;;5.10;4.05;;;9.90;99.90;;;;;;5026840;28;20091;-74
2022/12/20 06:14:23;;;;;;;5.13;3.70;;;9.90;99.90;;;;;;5012418;28;20052;-74
2022/12/20 06:16:48;;;;;;;4.60;3.50;;;9.90;99.90;;;;;;5016582;28;20458;-75
2022/12/20 06:19:14;;;;;;;4.13;3.28;;;9.90;99.90;;;;;;5048793;28;20056;-74
2022/12/20 06:21:40;;;;;;;5.72;3.70;;;9.90;99.90;;;;;;5047442;28;20072;-74
2022/12/20 06:24:06;;;;;;;5.13;3.72;;;9.90;99.90;;;;;;5044392;28;20115;-74
2022/12/20 06:26:35;;;;;;;5.00;3.47;;;9.90;99.90;;;;;;5036034;28;20064;-75
2022/12/20 06:29:09;;;;;;;7.82;4.03;;;10.00;99.90;;;;;;5042404;28;20075;-75
2022/12/20 06:31:35;;;;;;;4.80;3.53;;;10.00;99.90;;;;;;5041248;28;20041;-74
2022/12/20 06:34:00;;;;;;;7.55;4.15;;;10.00;99.90;;;;;;5043356;28;20041;-74
2022/12/20 06:36:26;;;;;;;5.22;3.92;;;10.00;99.90;;;;;;5043632;28;20098;-74
2022/12/20 06:38:52;;;;;;;4.63;4.00;;;10.00;99.90;;;;;;5039819;28;20037;-75
2022/12/20 06:41:18;;;;;;;6.65;4.20;;;9.90;99.90;;;;;;5034206;28;20065;-75
2022/12/20 06:43:43;;;;;;;5.60;4.10;;;9.90;99.90;;;;;;5049114;28;20491;-75
2022/12/20 06:46:09;;;;;;;5.88;4.18;;;9.90;99.90;;;;;;5052492;28;20069;-74
2022/12/20 06:48:35;;;;;;;7.22;4.20;;;9.90;99.90;;;;;;5049752;28;20067;-74
2022/12/20 06:51:00;;;;;;;8.75;4.55;;;9.90;99.90;;;;;;5050407;28;20038;-74
2022/12/20 06:53:26;;;;;;;6.72;4.82;;;9.80;99.90;;;;;;5046111;28;20127;-75
2022/12/20 06:55:52;;;;;;;6.28;4.68;;;9.80;99.90;;;;;;5046618;28;20032;-75
2022/12/20 06:58:18;;;;;;;7.93;4.80;;;9.80;99.90;;;;;;5044666;28;20118;-76
2022/12/20 07:00:44;;;;;;;6.43;4.93;;;9.80;99.90;;;;;;5044857;28;20090;-75
2022/12/20 07:03:10;;;;;;;6.20;4.53;;;9.80;99.90;;;;;;5043476;28;20048;-74
2022/12/20 07:05:36;;;;;;;5.65;5.05;;;9.80;99.90;;;;;;5045368;28;20249;-75
2022/12/20 07:08:03;;;;;;;5.82;4.95;;;9.80;99.90;;;;;;5043467;28;20128;-75
2022/12/20 07:10:30;;;;;;;5.40;4.90;;;9.80;99.90;;;;;;5041584;28;20474;-75
2022/12/20 07:12:56;;;;;;;6.40;5.13;;;9.80;99.90;;;;;;5029265;28;20124;-76
2022/12/20 07:15:22;;;;;;;6.72;5.05;;;9.70;99.90;;;;;;5048747;28;20164;-75
2022/12/20 07:17:47;;;;;;;7.30;5.60;;;9.80;99.90;;;;;;5028722;28;20053;-75
2022/12/20 07:20:13;;;;;;;6.43;5.70;;;9.80;99.90;;;;;;5046408;28;20465;-75
2022/12/20 07:22:39;;;;;;;6.55;5.68;;;9.80;99.90;;;;;;5048907;28;20041;-75
2022/12/20 07:25:05;;;;;;;6.53;5.80;;;9.70;99.90;;;;;;5054971;28;20065;-75
2022/12/20 07:27:30;;;;;;;6.80;5.47;;;9.70;99.90;;;;;;5057557;28;20057;-76
2022/12/20 07:29:56;;;;;;;6.35;5.50;;;9.70;99.90;;;;;;5043760;28;20470;-75
2022/12/20 07:32:22;;;;;;;7.75;5.60;;;9.70;99.90;;;;;;5046284;28;20044;-75
2022/12/20 07:34:47;;;;;;;8.63;5.75;;;9.70;99.90;;;;;;5027397;28;20046;-76
2022/12/20 07:37:13;;;;;;;9.25;5.85;;;9.70;99.90;;;;;;5046650;28;20068;-76
2022/12/20 07:39:41;;;;;;;8.30;5.75;;;9.70;99.90;;;;;;5044102;28;20079;-76
2022/12/20 07:42:08;;;;;;;5.50;4.93;;;9.80;99.90;;;;;;5047806;28;20037;-76
2022/12/20 07:44:34;;;;;;;7.40;5.60;;;9.80;99.90;;;;;;5051431;28;20037;-77
2022/12/20 07:46:59;;;;;;;6.40;4.78;;;9.70;99.90;;;;;;5035405;28;20041;-77
2022/12/20 07:49:25;;;;;;;5.82;4.82;;;9.80;99.90;;;;;;5040791;28;20454;-77
2022/12/20 07:51:56;;;;;;;5.95;5.30;;;9.80;99.90;;;;;;5050191;28;20072;-76
2022/12/20 07:54:27;;;;;;;5.03;4.50;;;9.90;99.90;;;;;;5051878;28;20682;-76
2022/12/20 07:56:58;;;;;;;6.35;4.82;;;9.80;99.90;;;;;;5030814;28;20088;-76
2022/12/20 07:59:40;;;;;;;9.05;4.82;;;9.80;99.90;;;;;;5028688;28;20068;-76
2022/12/20 08:02:10;;;;;;;7.47;4.18;;;9.90;99.90;;;;;;5042945;28;20513;-77
2022/12/20 08:04:36;;;;;;;7.68;4.97;;;9.90;99.90;;;;;;5057218;28;20053;-77
2022/12/20 08:07:02;;;;;;;5.50;4.72;;;10.00;99.90;;;;;;5036943;28;20041;-77
2022/12/20 08:09:32;;;;;;;6.28;4.18;;;10.00;99.90;;;;;;5049998;28;20372;-78
2022/12/20 08:11:58;;;;;;;5.05;4.22;;;10.00;99.90;;;;;;5046455;28;20065;-77
2022/12/20 08:14:24;;;;;;;7.13;4.32;;;10.10;99.90;;;;;;5052424;28;20083;-77
2022/12/20 08:16:49;;;;;;;5.88;4.13;;;10.10;99.90;;;;;;5051744;28;20037;-77
2022/12/20 08:19:15;;;;;;;5.32;3.95;;;10.10;99.90;;;;;;5048669;28;20128;-77
2022/12/20 08:21:41;;;;;;;4.20;3.78;;;10.00;99.90;;;;;;5051602;28;20056;-77
2022/12/20 08:24:07;;;;;;;6.05;4.05;;;10.00;99.90;;;;;;5034061;28;20502;-77
2022/12/20 08:26:40;;;;;;;5.07;3.67;;;10.00;99.90;;;;;;5020113;28;20076;-78
2022/12/20 08:29:07;;;;;;;5.97;4.30;;;10.10;99.90;;;;;;5048140;28;20533;-77
2022/12/20 08:31:41;;;;;;;7.07;3.58;;;10.00;99.90;;;;;;5049822;28;20047;-77
2022/12/20 08:34:07;;;;;;;6.63;3.60;;;10.10;99.90;;;;;;5047375;28;20033;-77
2022/12/20 08:36:32;;;;;;;3.80;3.40;;;10.10;99.90;;;;;;5052076;28;20533;-77
2022/12/20 08:39:02;;;;;;;8.73;4.03;;;10.10;99.90;;;;;;5056079;28;20036;-77
2022/12/20 08:41:28;;;;;;;3.95;3.53;;;10.10;99.90;;;;;;5047368;28;20041;-77
2022/12/20 08:43:54;;;;;;;5.30;3.70;;;10.10;99.90;;;;;;5046463;28;20095;-77
2022/12/20 08:46:19;;;;;;;4.53;3.40;;;10.10;99.90;;;;;;5043671;28;20128;-76
2022/12/20 08:48:45;;;;;;;4.90;3.90;;;10.10;99.90;;;;;;5041040;28;20525;-77
2022/12/20 08:51:11;;;;;;;5.15;4.00;;;10.20;99.90;;;;;;5040101;28;20359;-77
2022/12/20 08:53:38;;;;;;;3.78;3.47;;;10.10;99.90;;;;;;5045730;28;20386;-77
2022/12/20 08:56:12;;;;;;;5.85;3.42;;;10.20;99.90;;;;;;5045955;28;20099;-77
2022/12/20 08:58:39;;;;;;;9.38;3.75;;;10.20;99.90;;;;;;5037875;28;21647;-77
2022/12/20 09:01:08;;;;;;;6.03;3.92;;;10.20;99.90;;;;;;5045518;28;20060;-77
2022/12/20 09:03:35;;;;;;;6.75;3.85;;;10.20;99.90;;;;;;5025332;28;20177;-77
2022/12/20 09:06:05;;;;;;;5.13;4.30;;;10.20;99.90;;;;;;5046003;28;20047;-78
2022/12/20 09:08:32;;;;;;;4.50;4.00;;;10.20;99.90;;;;;;5042925;28;21581;-77
2022/12/20 09:11:30;;;;;;;7.88;4.00;;;10.20;99.90;;;;;;5042169;28;20052;-77
2022/12/20 09:13:57;;;;;;;7.53;4.38;;;10.20;99.90;;;;;;5005331;28;22579;-77
2022/12/20 09:16:28;;;;;;;6.72;4.28;;;10.20;99.90;;;;;;5048035;28;20394;-77
2022/12/20 09:18:57;;;;;;;7.68;4.00;;;10.20;99.90;;;;;;5038047;28;20057;-76
2022/12/20 09:21:23;;;;;;;4.75;3.67;;;10.20;99.90;;;;;;5042896;28;20167;-77
2022/12/20 09:23:53;;;;;;;6.32;3.90;;;10.20;99.90;;;;;;5043125;28;20136;-76
2022/12/20 09:26:21;;;;;;;6.65;4.25;;;10.20;99.90;;;;;;5052106;28;20033;-77
2022/12/20 09:28:47;;;;;;;6.50;4.50;;;10.10;99.90;;;;;;5034140;28;20170;-77
2022/12/20 09:31:15;;;;;;;5.00;3.95;;;10.10;99.90;;;;;;5033278;28;20529;-77
2022/12/20 09:33:42;;;;;;;6.03;4.40;;;10.10;99.90;;;;;;5051697;28;20052;-77
2022/12/20 09:36:16;;;;;;;5.63;3.80;;;10.10;99.90;;;;;;5050076;28;20403;-76
2022/12/20 09:38:42;;;;;;;5.22;4.03;;;10.10;99.90;;;;;;5017782;28;20110;-77
2022/12/20 09:41:21;;;;;;;6.30;4.07;;;10.10;99.90;;;;;;5041292;28;20049;-77
2022/12/20 09:43:47;;;;;;;6.72;3.92;;;10.10;99.90;;;;;;5043256;28;20379;-76
2022/12/20 09:46:14;;;;;;;6.45;4.05;;;10.10;99.90;;;;;;5052577;28;20036;-76
2022/12/20 09:48:42;;;;;;;6.03;4.15;;;10.10;99.90;;;;;;5055267;28;20066;-77
2022/12/20 09:51:38;;;;;;;5.03;3.88;;;10.00;99.90;;;;;;5050375;28;20052;-76
2022/12/20 09:54:35;;;;;;;6.40;4.43;;;10.00;99.90;;;;;;5051472;28;20103;-77
2022/12/20 09:57:16;;;;;;;6.63;3.80;;;10.00;99.90;;;;;;5048835;28;20053;-77
2022/12/20 09:59:43;;;;;;;6.28;4.05;;;10.00;99.90;;;;;;5049737;28;20045;-77
2022/12/20 10:02:11;;;;;;;7.03;4.03;;;9.90;99.90;;;;;;5051403;28;20045;-77
2022/12/20 10:04:38;;;;;;;8.55;3.72;;;9.90;99.90;;;;;;5050197;28;20041;-77
2022/12/20 10:07:22;;;;;;;6.05;3.90;;;9.90;99.90;;;;;;5051817;28;20521;-77
2022/12/20 10:10:06;;;;;;;6.80;4.25;;;9.90;99.90;;;;;;5047141;28;20041;-77
2022/12/20 10:12:50;;;;;;;4.45;3.63;;;9.90;99.90;;;;;;5042486;28;20506;-77
2022/12/20 10:15:39;;;;;;;6.63;3.60;;;9.80;99.90;;;;;;5053343;28;20048;-77
2022/12/20 10:18:04;;;;;;;7.10;3.92;;;9.80;99.90;;;;;;5056294;28;20182;-77
2022/12/20 10:21:01;;;;;;;6.03;4.07;;;9.80;99.90;;;;;;5054314;28;20057;-78
2022/12/20 10:23:41;;;;;;;5.50;3.85;;;9.80;99.90;;;;;;5056743;28;20387;-77
2022/12/20 10:26:12;;;;;;;4.80;3.53;;;9.80;99.90;;;;;;5042203;28;20053;-78
2022/12/20 10:28:39;;;;;;;6.05;3.65;;;9.80;99.90;;;;;;5050262;28;20053;-78
2022/12/20 10:31:13;;;;;;;6.25;3.47;;;9.80;99.90;;;;;;5049784;28;20048;-78
2022/12/20 10:33:40;;;;;;;6.40;3.85;;;9.80;99.90;;;;;;5054322;28;20052;-78
2022/12/20 10:36:25;;;;;;;7.10;3.85;;;9.80;99.90;;;;;;5052451;28;20132;-78
2022/12/20 10:38:53;;;;;;;7.22;3.85;;;9.80;99.90;;;;;;5059838;28;20041;-78
2022/12/20 10:41:23;;;;;;;5.82;3.97;;;9.80;99.90;;;;;;5062436;28;20441;-77
2022/12/20 10:44:00;;;;;;;6.05;3.83;;;9.90;99.90;;;;;;5018614;28;20037;-78
2022/12/20 10:46:52;;;;;;;5.43;4.03;;;9.90;99.90;;;;;;5052854;28;20095;-77
2022/12/20 10:49:39;;;;;;;5.78;3.47;;;9.90;99.90;;;;;;5052789;28;20116;-76
2022/12/20 10:52:08;;;;;;;6.63;4.00;;;9.90;99.90;;;;;;5054125;28;20083;-77
2022/12/20 10:54:37;;;;;;;4.03;3.35;;;9.90;99.90;;;;;;5055228;28;20053;-77
2022/12/20 10:57:25;;;;;;;6.70;3.80;;;9.90;99.90;;;;;;5055495;28;20036;-77
2022/12/20 10:59:53;;;;;;;7.60;4.20;;;9.90;99.90;;;;;;5059423;28;20047;-77
2022/12/20 11:02:28;;;;;;;4.20;3.80;;;10.00;99.90;;;;;;5052896;28;20045;-77
2022/12/20 11:05:23;;;;;;;6.72;4.10;;;10.00;99.90;;;;;;5055717;28;20124;-77
2022/12/20 11:07:56;;;;;;;6.20;4.10;;;10.00;99.90;;;;;;5018855;28;20060;-77
2022/12/20 11:10:25;;;;;;;6.40;3.90;;;10.10;99.90;;;;;;5054248;28;20116;-77
2022/12/20 11:13:02;;;;;;;5.03;3.90;;;10.10;99.90;;;;;;5055139;28;20514;-77
2022/12/20 11:15:30;;;;;;;5.28;3.80;;;10.00;99.90;;;;;;5051257;28;20064;-77
2022/12/20 11:17:59;;;;;;;;;;;10.00;99.90;;;;;;5045019;28;20139;-77
2022/12/20 11:20:57;;;;;;;7.47;3.90;;;10.00;99.90;;;;;;5044789;28;19967;-77
2022/12/20 11:23:48;;;;;;;7.93;3.90;;;10.00;99.90;;;;;;5062065;28;20072;-78
2022/12/20 11:26:17;;;;;;;5.28;3.83;;;10.00;99.90;;;;;;5029938;28;20091;-78
2022/12/20 11:28:51;;;;;;;6.90;3.85;;;10.00;99.90;;;;;;5034414;28;20136;-78
2022/12/20 11:31:40;;;;;;;5.22;3.83;;;10.00;99.90;;;;;;5047236;28;20487;-78
2022/12/20 11:34:32;;;;;;;7.05;3.90;;;10.00;99.90;;;;;;5066439;28;20217;-79
2022/12/20 11:37:31;;;;;;;5.25;4.30;;;10.00;99.90;;;;;;5039145;28;20053;-79
2022/12/20 11:40:16;;;;;;;5.30;4.28;;;10.10;99.90;;;;;;5048027;28;20053;-79
2022/12/20 11:42:56;;;;;;;7.65;4.30;;;10.00;99.90;;;;;;5031376;28;20048;-79
2022/12/20 11:45:29;;;;;;;7.38;4.47;;;10.00;99.90;;;;;;5050311;28;20056;-79
2022/12/20 11:48:00;;;;;;;4.65;3.97;;;10.00;99.90;;;;;;5032750;28;20064;-79
2022/12/20 11:50:55;;;;;;;6.65;4.53;;;10.00;99.90;;;;;;5047545;28;20052;-79
2022/12/20 11:53:42;;;;;;;5.05;4.55;;;10.00;99.90;;;;;;5045133;28;20045;-79
2022/12/20 11:56:19;;;;;;;6.13;4.33;;;10.00;99.90;;;;;;5051829;28;20113;-79
2022/12/20 11:58:45;;;;;;;7.95;4.55;;;10.00;99.90;;;;;;5050510;28;20045;-79
2022/12/20 12:01:20;;;;;;;4.93;4.18;;;9.90;99.90;;;;;;5039496;28;20144;-79
2022/12/20 12:04:03;;;;;;;5.72;4.75;;;9.90;99.90;;;;;;5051108;28;20078;-79
2022/12/20 12:06:43;;;;;;;6.80;4.57;;;9.90;99.90;;;;;;5060146;28;20045;-79
2022/12/20 12:09:21;;;;;;;7.75;4.80;;;9.90;99.90;;;;;;5052084;28;20041;-79
2022/12/20 12:11:55;;;;;;;5.35;4.70;;;9.90;99.90;;;;;;5048999;28;20053;-79
2022/12/20 12:14:32;;;;;;;6.88;4.57;;;9.90;99.90;;;;;;5060513;28;20128;-79
2022/12/20 12:17:07;;;;;;;5.70;4.32;;;9.90;99.90;;;;;;5054904;28;20048;-79
2022/12/20 12:19:39;;;;;;;7.95;4.68;;;9.90;99.90;;;;;;5036845;28;20394;-79
2022/12/20 12:22:12;;;;;;;6.82;5.03;;;9.90;99.90;;;;;;5053846;28;20067;-79
2022/12/20 12:24:42;;;;;;;8.35;5.20;;;9.90;99.90;;;;;;5037973;28;20116;-79
2022/12/20 12:27:20;;;;;;;7.03;5.05;;;9.90;99.90;;;;;;5051178;28;20053;-79
2022/12/20 12:29:46;;;;;;;7.30;4.47;;;9.90;99.90;;;;;;5053203;28;20040;-79
2022/12/20 12:32:25;;;;;;;7.03;4.93;;;9.90;99.90;;;;;;5054552;28;20033;-79
2022/12/20 12:35:02;;;;;;;7.47;4.88;;;9.90;99.90;;;;;;5051822;28;20040;-80
2022/12/20 12:38:17;;;;;;;7.25;4.70;;;10.00;99.90;;;;;;5049704;28;20049;-79
2022/12/20 12:41:12;;;;;;;8.02;5.95;;;10.00;99.90;;;;;;5008321;28;20112;-79
2022/12/20 12:43:55;;;;;;;7.53;5.10;;;9.90;99.90;;;;;;4988774;28;20270;-79
2022/12/20 12:46:21;;;;;;;7.28;5.13;;;10.00;99.90;;;;;;5009578;28;20093;-79
2022/12/20 12:48:56;;;;;;;8.38;5.00;;;10.00;99.90;;;;;;4991987;28;20065;-79
2022/12/20 12:51:33;;;;;;;8.48;5.15;;;10.00;99.90;;;;;;5010787;28;20058;-79
2022/12/20 12:54:04;;;;;;;8.55;5.30;;;9.90;99.90;;;;;;5012589;28;20080;-78
2022/12/20 12:56:36;;;;;;;6.90;5.20;;;9.90;99.90;;;;;;5003637;28;20041;-78
2022/12/20 12:59:04;;;;;;;7.25;5.25;;;9.90;99.90;;;;;;5012067;28;20053;-78
2022/12/20 13:01:45;;;;;;;7.03;5.57;;;9.90;99.90;;;;;;5009114;28;20464;-78
2022/12/20 13:04:24;;;;;;;8.07;5.45;;;9.90;99.90;;;;;;5010577;28;20404;-79
2022/12/20 13:06:50;;;;;;;5.65;5.13;;;9.90;99.90;;;;;;4999297;28;20056;-78
2022/12/20 13:09:24;;;;;;;6.10;5.50;;;10.00;99.90;;;;;;5010910;28;20451;-78
2022/12/20 13:11:54;;;;;;;9.63;6.00;;;9.90;99.90;;;;;;5037745;28;20049;-78
2022/12/20 13:14:20;;;;;;;7.63;5.78;;;9.90;99.90;;;;;;5046223;28;20410;-78
2022/12/20 13:16:47;;;;;;;7.03;6.00;;;10.00;99.90;;;;;;5056961;28;20049;-79
2022/12/20 13:19:37;;;;;;;6.47;5.80;;;10.00;99.90;;;;;;5033405;28;20049;-78
2022/12/20 13:22:20;;;;;;;7.65;5.90;;;10.00;99.90;;;;;;5040960;28;20056;-79